Time;durP1;ratioP1;P1;durP2;ratioP2;P2;SDS_P1;SDS_P2;PMS_P1;PMS_P2;Temp;Humidity;BMP_temperature;BMP_pressure;BME280_temperature;BME280_humidity;BME280_pressure;Samples;Min_cycle;Max_cycle;Signal;HPM_P1;HPM_P2
2022/05/19 00:01:44;;;;;;;0.60;0.60;;;18.40;58.80;17.90;98750.00;;;;5013092;28;20256;-72
2022/05/19 00:04:10;;;;;;;0.80;0.80;;;18.40;59.00;17.80;98754.00;;;;5013042;28;20209;-72
2022/05/19 00:06:38;;;;;;;0.70;0.70;;;18.30;59.60;17.80;98753.00;;;;5014609;28;20228;-72
2022/05/19 00:09:05;;;;;;;0.40;0.40;;;18.30;59.80;17.80;98747.00;;;;4999097;28;20205;-73
2022/05/19 00:11:33;;;;;;;0.70;0.70;;;18.30;59.30;17.60;98749.00;;;;5016292;28;20225;-72
2022/05/19 00:14:02;;;;;;;0.73;0.73;;;18.20;60.00;17.70;98744.00;;;;5016258;28;20213;-74
2022/05/19 00:16:29;;;;;;;0.90;0.90;;;18.20;60.40;17.70;98740.00;;;;5016608;28;20225;-73
2022/05/19 00:18:56;;;;;;;0.53;0.53;;;18.20;59.80;17.80;98736.00;;;;5016555;28;20193;-72
2022/05/19 00:21:22;;;;;;;0.70;0.70;;;18.20;59.50;17.70;98731.00;;;;5016341;28;20201;-72
2022/05/19 00:23:49;;;;;;;1.37;1.10;;;18.20;58.70;17.70;98719.00;;;;4999880;28;20233;-72
2022/05/19 00:26:16;;;;;;;0.70;0.70;;;18.10;58.30;17.60;98722.00;;;;5018062;28;20201;-73
2022/05/19 00:28:43;;;;;;;0.67;0.67;;;18.10;58.10;17.40;98717.00;;;;5016177;28;20236;-72
2022/05/19 00:31:10;;;;;;;0.80;0.80;;;18.10;58.60;17.50;98714.00;;;;5015903;28;20300;-72
2022/05/19 00:33:37;;;;;;;0.60;0.60;;;18.00;58.90;17.40;98728.00;;;;5015932;28;20205;-73
2022/05/19 00:36:11;;;;;;;0.60;0.60;;;17.90;59.00;17.40;98727.00;;;;5015766;28;20221;-72
2022/05/19 00:38:39;;;;;;;1.17;1.17;;;17.90;59.50;17.30;98726.00;;;;5015979;28;20239;-72
2022/05/19 00:41:07;;;;;;;0.60;0.60;;;17.90;59.80;17.40;98722.00;;;;5015814;28;20201;-73
2022/05/19 00:43:40;;;;;;;0.40;0.40;;;17.80;60.60;17.30;98718.00;;;;5015787;28;20212;-74
2022/05/19 00:46:13;;;;;;;0.97;0.97;;;17.90;60.50;17.30;98721.00;;;;5015727;28;20228;-72
2022/05/19 00:48:49;;;;;;;1.13;1.13;;;17.80;60.90;17.30;98713.00;;;;5015718;28;20256;-72
2022/05/19 00:51:19;;;;;;;0.77;0.77;;;17.80;61.50;17.10;98709.00;;;;5015650;28;20676;-73
2022/05/19 00:53:52;;;;;;;1.07;0.83;;;17.70;62.00;17.20;98710.00;;;;5015588;28;20640;-74
2022/05/19 00:56:30;;;;;;;0.60;0.60;;;17.70;62.40;17.30;98715.00;;;;5015627;28;20244;-74
2022/05/19 00:59:05;;;;;;;1.10;1.10;;;17.70;62.00;17.20;98709.00;;;;5015526;28;20555;-74
2022/05/19 01:01:33;;;;;;;0.70;0.70;;;17.60;62.20;17.20;98698.00;;;;5015587;28;20235;-72
2022/05/19 01:04:10;;;;;;;0.80;0.80;;;17.70;61.90;17.20;98697.00;;;;5015483;28;20352;-72
2022/05/19 01:06:39;;;;;;;0.90;0.90;;;17.60;61.20;17.10;98703.00;;;;5015411;28;20597;-72
2022/05/19 01:09:11;;;;;;;1.07;1.00;;;17.60;61.40;17.10;98700.00;;;;5015385;28;20205;-72
2022/05/19 01:11:38;;;;;;;0.60;0.60;;;17.60;61.60;17.00;98703.00;;;;5015517;28;20197;-72
2022/05/19 01:14:08;;;;;;;1.10;1.10;;;17.50;62.50;16.90;98698.00;;;;4998511;28;20198;-73
2022/05/19 01:16:36;;;;;;;0.80;0.80;;;17.40;62.40;16.90;98697.00;;;;5015407;28;20274;-73
2022/05/19 01:19:10;;;;;;;1.03;1.03;;;17.40;62.30;16.90;98703.00;;;;5014160;28;20232;-72
2022/05/19 01:21:37;;;;;;;1.00;1.00;;;17.40;63.00;16.80;98703.00;;;;5015182;28;20201;-74
2022/05/19 01:24:16;;;;;;;0.83;0.83;;;17.30;63.10;16.80;98700.00;;;;5015110;28;20237;-73
2022/05/19 01:26:49;;;;;;;2.10;0.80;;;17.30;63.10;16.90;98704.00;;;;5015147;28;20224;-73
2022/05/19 01:29:24;;;;;;;1.00;1.00;;;17.30;62.90;16.80;98664.00;;;;5015118;28;20541;-72
2022/05/19 01:31:53;;;;;;;0.60;0.60;;;17.30;62.50;16.70;98693.00;;;;5015192;28;20229;-72
2022/05/19 01:34:23;;;;;;;1.00;1.00;;;17.20;63.30;16.50;98698.00;;;;4997882;28;20201;-72
2022/05/19 01:36:50;;;;;;;0.80;0.80;;;17.10;63.60;16.60;98698.00;;;;5015025;28;20587;-72
2022/05/19 01:39:19;;;;;;;0.60;0.60;;;17.10;64.00;16.60;98691.00;;;;5014985;28;20284;-72
2022/05/19 01:42:03;;;;;;;0.90;0.90;;;17.10;64.20;16.60;98695.00;;;;5014921;28;20217;-72
2022/05/19 01:44:46;;;;;;;0.70;0.70;;;17.00;64.00;16.60;98686.00;;;;5014872;28;20283;-72
2022/05/19 01:47:25;;;;;;;0.93;0.93;;;17.10;64.40;16.40;98686.00;;;;5014884;28;20263;-73
2022/05/19 01:49:59;;;;;;;0.60;0.60;;;17.00;64.90;16.40;98694.00;;;;5014744;28;20231;-72
2022/05/19 01:52:36;;;;;;;1.20;1.20;;;17.00;64.90;16.30;98680.00;;;;5015030;28;20196;-72
2022/05/19 01:55:15;;;;;;;0.60;0.60;;;16.90;65.50;16.30;98683.00;;;;5015017;28;20266;-74
2022/05/19 01:57:51;;;;;;;0.70;0.70;;;16.80;66.40;16.30;98685.00;;;;5014700;28;20302;-73
2022/05/19 02:00:22;;;;;;;0.80;0.80;;;16.80;65.80;16.30;98676.00;;;;5014663;28;20265;-73
2022/05/19 02:02:56;;;;;;;1.13;1.10;;;16.80;65.60;16.20;98673.00;;;;5014574;28;20524;-73
2022/05/19 02:05:37;;;;;;;0.60;0.60;;;16.70;64.60;16.10;98679.00;;;;4997196;28;20222;-72
2022/05/19 02:08:14;;;;;;;0.93;0.93;;;16.70;64.20;16.10;98634.00;;;;5014404;28;20228;-72
2022/05/19 02:10:47;;;;;;;0.90;0.90;;;16.50;64.50;16.00;98673.00;;;;5014480;28;20217;-72
2022/05/19 02:13:17;;;;;;;0.70;0.70;;;16.50;64.60;15.90;98671.00;;;;4997085;28;20633;-72
2022/05/19 02:15:46;;;;;;;0.60;0.60;;;16.50;64.70;15.80;98678.00;;;;5014549;28;20205;-73
2022/05/19 02:18:16;;;;;;;0.50;0.50;;;16.40;64.80;15.80;98681.00;;;;5013368;28;20716;-72
2022/05/19 02:20:45;;;;;;;0.77;0.77;;;16.40;64.60;15.70;98677.00;;;;5013219;28;20560;-72
2022/05/19 02:23:15;;;;;;;0.70;0.70;;;16.30;64.80;15.70;98676.00;;;;4997039;28;20244;-73
2022/05/19 02:25:45;;;;;;;3.70;1.57;;;16.20;65.60;15.70;98674.00;;;;4996964;28;20285;-72
2022/05/19 02:28:20;;;;;;;2.10;1.07;;;16.30;66.40;15.70;98672.00;;;;5014489;28;20197;-72
2022/05/19 02:30:47;;;;;;;0.60;0.60;;;16.30;66.90;15.70;98682.00;;;;5013982;28;20231;-72
2022/05/19 02:33:16;;;;;;;0.77;0.77;;;16.20;67.50;15.70;98678.00;;;;5014317;28;20213;-73
2022/05/19 02:35:44;;;;;;;0.77;0.77;;;16.20;67.40;15.60;98677.00;;;;5014188;28;20232;-73
2022/05/19 02:38:12;;;;;;;0.57;0.57;;;16.10;67.80;15.60;98691.00;;;;4996812;28;20651;-73
2022/05/19 02:40:40;;;;;;;0.83;0.83;;;16.10;68.40;15.60;98684.00;;;;5014082;28;20572;-72
2022/05/19 02:43:08;;;;;;;0.50;0.50;;;16.10;68.60;15.60;98680.00;;;;5014122;28;20671;-74
2022/05/19 02:45:36;;;;;;;0.50;0.50;;;16.10;68.20;15.50;98688.00;;;;5013974;28;20221;-72
2022/05/19 02:48:05;;;;;;;0.80;0.80;;;16.00;68.80;15.70;98686.00;;;;5014067;28;20201;-72
2022/05/19 02:50:32;;;;;;;0.87;0.87;;;16.10;69.20;15.50;98692.00;;;;5013771;28;20278;-72
2022/05/19 02:53:01;;;;;;;1.07;1.07;;;16.00;68.30;15.50;98690.00;;;;4996636;28;20213;-72
2022/05/19 02:55:29;;;;;;;0.73;0.73;;;16.10;68.60;15.40;98691.00;;;;5013890;28;20205;-72
2022/05/19 02:57:56;;;;;;;0.90;0.90;;;16.00;68.90;15.50;98691.00;;;;5013720;28;20249;-73
2022/05/19 03:00:25;;;;;;;1.00;1.00;;;16.00;68.70;15.40;98688.00;;;;5013902;28;20280;-73
2022/05/19 03:02:56;;;;;;;0.90;0.90;;;16.00;68.90;15.30;98682.00;;;;5013659;28;20226;-73
2022/05/19 03:05:31;;;;;;;0.93;0.93;;;15.90;68.60;15.50;98676.00;;;;4996577;28;20202;-72
2022/05/19 03:07:58;;;;;;;0.73;0.73;;;15.90;69.20;15.40;98673.00;;;;5013903;28;20198;-73
2022/05/19 03:10:27;;;;;;;1.13;1.10;;;15.90;67.90;15.30;98673.00;;;;5013662;28;20649;-72
2022/05/19 03:12:56;;;;;;;0.80;0.80;;;15.80;67.80;15.10;98676.00;;;;5013613;28;20205;-73
2022/05/19 03:15:23;;;;;;;0.70;0.70;;;15.70;68.10;15.00;98676.00;;;;4996446;28;20236;-72
2022/05/19 03:17:49;;;;;;;0.60;0.60;;;15.60;68.00;15.00;98677.00;;;;5013618;28;20209;-72
2022/05/19 03:20:17;;;;;;;0.70;0.70;;;15.60;68.30;15.10;98675.00;;;;5013618;28;20194;-72
2022/05/19 03:22:47;;;;;;;1.10;1.10;;;15.60;69.30;15.10;98670.00;;;;5013650;28;20205;-73
2022/05/19 03:25:15;;;;;;;0.80;0.80;;;15.60;69.00;14.90;98685.00;;;;5013513;28;20653;-74
2022/05/19 03:27:44;;;;;;;1.10;1.10;;;15.50;69.60;15.00;98678.00;;;;5013455;28;20224;-72
2022/05/19 03:30:16;;;;;;;0.80;0.80;;;15.50;69.80;14.90;98671.00;;;;5013500;28;20228;-72
2022/05/19 03:32:42;;;;;;;0.80;0.80;;;15.50;70.10;14.90;98663.00;;;;5013474;28;20256;-72
2022/05/19 03:35:10;;;;;;;1.03;1.03;;;15.40;71.10;15.00;98666.00;;;;5013504;28;20201;-72
2022/05/19 03:37:39;;;;;;;1.83;1.73;;;15.50;70.00;14.80;98675.00;;;;5013294;28;20595;-72
2022/05/19 03:40:07;;;;;;;0.77;0.77;;;15.40;69.70;14.90;98662.00;;;;5013312;28;20213;-72
2022/05/19 03:42:36;;;;;;;0.90;0.90;;;15.40;69.10;14.90;98662.00;;;;5016538;28;20300;-73
2022/05/19 03:45:05;;;;;;;1.37;1.17;;;15.30;69.20;14.80;98642.00;;;;4999787;28;20528;-72
2022/05/19 03:47:32;;;;;;;1.20;1.20;;;15.30;68.70;14.80;98672.00;;;;4999463;28;20209;-71
2022/05/19 03:49:59;;;;;;;4.80;1.40;;;15.30;68.80;14.70;98665.00;;;;5016711;28;20295;-74
2022/05/19 03:52:28;;;;;;;0.70;0.70;;;15.20;68.90;14.70;98660.00;;;;5016623;28;20283;-72
2022/05/19 03:54:55;;;;;;;1.10;1.10;;;15.20;69.00;14.60;98661.00;;;;5016584;28;20267;-72
2022/05/19 03:57:24;;;;;;;1.43;1.27;;;15.10;69.50;14.50;98663.00;;;;4999324;28;20317;-72
2022/05/19 03:59:52;;;;;;;2.03;1.20;;;15.10;69.80;14.40;98670.00;;;;5016478;28;20197;-72
2022/05/19 04:02:18;;;;;;;5.80;1.87;;;15.10;70.40;14.60;98672.00;;;;5016311;28;20641;-72
2022/05/19 04:04:45;;;;;;;0.93;0.93;;;15.10;71.20;14.70;98669.00;;;;5016224;28;20305;-71
2022/05/19 04:07:11;;;;;;;1.00;1.00;;;15.20;70.60;14.70;98671.00;;;;5016681;28;20202;-72
2022/05/19 04:09:40;;;;;;;1.17;1.17;;;15.20;69.50;14.70;98675.00;;;;4998770;28;20225;-72
2022/05/19 04:12:11;;;;;;;1.23;1.23;;;15.20;69.90;14.70;98676.00;;;;4999114;28;20201;-72
2022/05/19 04:14:37;;;;;;;0.53;0.53;;;15.20;70.20;14.60;98678.00;;;;4998895;28;20292;-72
2022/05/19 04:17:04;;;;;;;0.70;0.70;;;15.20;70.80;14.80;98675.00;;;;5016159;28;20248;-73
2022/05/19 04:19:35;;;;;;;1.00;1.00;;;15.30;71.00;14.90;98666.00;;;;5016107;28;20206;-72
2022/05/19 04:22:02;;;;;;;0.80;0.80;;;15.30;69.70;14.80;98667.00;;;;4998783;28;20202;-72
2022/05/19 04:24:31;;;;;;;1.07;1.07;;;15.30;70.10;14.80;98682.00;;;;5016208;28;20235;-73
2022/05/19 04:27:02;;;;;;;0.50;0.50;;;15.30;70.60;14.80;98686.00;;;;5016415;28;20213;-72
2022/05/19 04:29:29;;;;;;;1.00;1.00;;;15.40;70.10;14.90;98683.00;;;;5016013;28;20276;-73
2022/05/19 04:31:56;;;;;;;1.57;1.17;;;15.30;69.60;14.90;98686.00;;;;5015894;28;20205;-72
2022/05/19 04:34:22;;;;;;;0.80;0.80;;;15.40;69.00;15.10;98698.00;;;;5015839;28;20621;-72
2022/05/19 04:36:49;;;;;;;1.10;1.10;;;15.50;68.20;14.90;98690.00;;;;5015920;28;20216;-73
2022/05/19 04:39:16;;;;;;;1.10;1.00;;;15.40;67.80;14.90;98682.00;;;;5015969;28;20220;-72
2022/05/19 04:41:42;;;;;;;1.50;1.30;;;15.40;68.80;14.90;98689.00;;;;5015894;28;20217;-72
2022/05/19 04:44:09;;;;;;;4.07;1.47;;;15.40;69.20;14.90;98688.00;;;;5015772;28;20292;-73
2022/05/19 04:46:36;;;;;;;0.90;0.90;;;15.50;70.20;15.00;98685.00;;;;5015692;28;20288;-72
2022/05/19 04:49:02;;;;;;;0.90;0.90;;;15.50;70.90;15.10;98689.00;;;;4998536;28;20308;-71
2022/05/19 04:51:29;;;;;;;0.90;0.90;;;15.60;71.10;15.20;98690.00;;;;4998372;28;20241;-72
2022/05/19 04:53:55;;;;;;;0.90;0.90;;;15.60;70.50;15.20;98692.00;;;;5015581;28;20656;-72
2022/05/19 04:56:22;;;;;;;0.90;0.90;;;15.70;69.70;15.30;98686.00;;;;5015521;28;20653;-72
2022/05/19 04:58:48;;;;;;;1.00;1.00;;;15.80;69.60;15.40;98692.00;;;;5015700;28;20229;-72
2022/05/19 05:01:15;;;;;;;0.83;0.83;;;15.80;69.30;15.50;98681.00;;;;5015456;28;20256;-73
2022/05/19 05:03:42;;;;;;;0.97;0.97;;;16.00;69.70;15.50;98688.00;;;;4998304;28;20208;-73
2022/05/19 05:06:08;;;;;;;0.80;0.80;;;16.00;70.50;15.70;98683.00;;;;5015591;28;20272;-72
2022/05/19 05:08:37;;;;;;;1.63;1.53;;;16.20;69.00;15.80;98693.00;;;;5015387;28;20704;-72
2022/05/19 05:11:04;;;;;;;1.10;1.10;;;16.20;69.30;15.90;98702.00;;;;4997987;28;20280;-72
2022/05/19 05:13:32;;;;;;;0.80;0.80;;;16.30;68.00;15.80;98692.00;;;;5015389;28;20260;-73
2022/05/19 05:15:59;;;;;;;0.70;0.70;;;16.40;67.50;15.90;98697.00;;;;5015279;28;20197;-74
2022/05/19 05:18:26;;;;;;;0.60;0.60;;;16.30;68.50;16.00;98697.00;;;;4997891;28;20324;-72
2022/05/19 05:20:53;;;;;;;1.13;1.13;;;16.40;67.40;15.90;98701.00;;;;5015262;28;20640;-72
2022/05/19 05:23:19;;;;;;;0.60;0.60;;;16.50;66.40;15.80;98700.00;;;;5015161;28;20190;-72
2022/05/19 05:25:46;;;;;;;3.23;1.40;;;16.40;66.70;15.90;98707.00;;;;5015218;28;20196;-72
2022/05/19 05:28:12;;;;;;;0.80;0.80;;;16.40;66.60;16.10;98707.00;;;;5015398;28;20205;-74
2022/05/19 05:30:39;;;;;;;0.73;0.73;;;16.60;66.40;16.10;98717.00;;;;4997690;28;20245;-72
2022/05/19 05:33:08;;;;;;;0.87;0.87;;;16.60;66.10;16.30;98709.00;;;;5015183;28;20875;-72
2022/05/19 05:35:36;;;;;;;1.37;1.27;;;16.70;66.40;16.40;98701.00;;;;5014914;28;20645;-72
2022/05/19 05:38:06;;;;;;;0.73;0.73;;;16.80;67.10;16.30;98701.00;;;;5015027;28;20233;-73
2022/05/19 05:40:35;;;;;;;0.60;0.60;;;16.90;68.40;16.50;98705.00;;;;5014890;28;20208;-71
2022/05/19 05:43:07;;;;;;;0.60;0.60;;;16.90;68.20;16.60;98703.00;;;;5014853;28;20662;-72
2022/05/19 05:45:37;;;;;;;1.43;1.33;;;17.10;66.30;16.70;98705.00;;;;4997597;28;20208;-73
2022/05/19 05:48:05;;;;;;;0.63;0.63;;;17.10;66.90;16.70;98700.00;;;;5014745;28;20229;-73
2022/05/19 05:50:31;;;;;;;0.93;0.93;;;17.20;67.90;16.80;98702.00;;;;5014070;28;20224;-72
2022/05/19 05:52:58;;;;;;;2.03;1.93;;;17.30;68.00;16.90;98700.00;;;;5014726;28;20212;-72
2022/05/19 05:55:25;;;;;;;1.20;0.93;;;17.40;67.80;17.00;98706.00;;;;5014834;28;20320;-72
2022/05/19 05:57:54;;;;;;;1.03;1.03;;;17.50;68.30;17.10;98703.00;;;;5014658;28;20214;-73
2022/05/19 06:00:24;;;;;;;0.60;0.60;;;17.60;66.20;17.20;98701.00;;;;5014570;28;20660;-74
2022/05/19 06:02:53;;;;;;;0.70;0.70;;;17.70;66.00;17.40;98705.00;;;;5014679;28;20387;-72
2022/05/19 06:05:21;;;;;;;0.67;0.67;;;17.80;64.90;17.50;98710.00;;;;5013855;28;20243;-74
2022/05/19 06:07:48;;;;;;;0.60;0.60;;;18.00;61.20;17.70;98712.00;;;;5014457;28;20283;-73
2022/05/19 06:10:15;;;;;;;0.70;0.70;;;18.10;62.00;17.80;98703.00;;;;5014443;28;20304;-74
2022/05/19 06:12:43;;;;;;;0.83;0.83;;;18.10;60.10;17.90;98702.00;;;;5014350;28;20233;-73
2022/05/19 06:15:13;;;;;;;0.70;0.70;;;18.40;57.40;18.00;98701.00;;;;5014309;28;20201;-74
2022/05/19 06:17:41;;;;;;;1.73;1.63;;;18.60;55.10;18.30;98705.00;;;;5014243;28;20208;-74
2022/05/19 06:20:14;;;;;;;1.93;1.17;;;18.60;55.60;18.40;98699.00;;;;5014243;28;20225;-74
2022/05/19 06:22:42;;;;;;;0.50;0.50;;;18.80;54.00;18.40;98694.00;;;;5014255;28;20233;-73
2022/05/19 06:25:13;;;;;;;2.20;1.40;;;18.80;54.20;18.50;98703.00;;;;5014308;28;20653;-73
2022/05/19 06:27:40;;;;;;;0.60;0.60;;;18.90;55.50;18.50;98696.00;;;;5014160;28;20201;-75
2022/05/19 06:30:09;;;;;;;0.53;0.53;;;19.00;55.40;18.80;98708.00;;;;4996960;28;20371;-74
2022/05/19 06:32:39;;;;;;;0.80;0.80;;;19.10;53.90;18.90;98710.00;;;;5014072;28;20189;-75
2022/05/19 06:35:08;;;;;;;0.40;0.40;;;19.20;53.10;18.90;98699.00;;;;5014060;28;20201;-74
2022/05/19 06:37:35;;;;;;;0.70;0.70;;;;;19.00;98706.00;;;;5014024;28;20661;-75
2022/05/19 06:40:01;;;;;;;0.70;0.70;;;19.40;53.30;19.00;98702.00;;;;5013946;28;20201;-75
2022/05/19 06:42:29;;;;;;;0.60;0.60;;;19.50;53.60;19.20;98703.00;;;;4996713;28;20221;-75
2022/05/19 06:44:56;;;;;;;0.70;0.70;;;;;19.30;98706.00;;;;5014024;28;20541;-75
2022/05/19 06:47:26;;;;;;;1.43;1.33;;;;;19.40;98705.00;;;;5014000;28;20269;-76
2022/05/19 06:49:55;;;;;;;0.70;0.70;;;19.80;51.10;19.50;98705.00;;;;5013844;28;20217;-76
2022/05/19 06:52:25;;;;;;;0.80;0.80;;;19.90;51.90;19.50;98710.00;;;;5013951;28;20583;-77
2022/05/19 06:54:54;;;;;;;0.50;0.50;;;;;19.70;98714.00;;;;5013830;28;20221;-76
2022/05/19 06:57:22;;;;;;;0.63;0.63;;;20.00;50.70;19.80;98713.00;;;;5014019;28;20288;-76
2022/05/19 06:59:51;;;;;;;0.80;0.80;;;20.20;49.40;20.00;98707.00;;;;5014007;28;20307;-76
2022/05/19 07:02:23;;;;;;;1.03;1.03;;;20.30;49.50;20.10;98716.00;;;;5014032;28;20201;-77
2022/05/19 07:04:51;;;;;;;0.80;0.80;;;20.50;49.40;20.10;98709.00;;;;5013880;28;20636;-76
2022/05/19 07:07:18;;;;;;;0.50;0.50;;;20.50;49.00;20.20;98692.00;;;;5013874;28;20651;-75
2022/05/19 07:09:45;;;;;;;0.53;0.53;;;;;20.20;98712.00;;;;5013729;28;20625;-75
2022/05/19 07:12:13;;;;;;;3.43;1.43;;;20.70;49.40;20.20;98723.00;;;;5013688;28;20300;-74
2022/05/19 07:14:41;;;;;;;0.80;0.80;;;20.70;50.00;20.30;98715.00;;;;5013836;28;20499;-76
2022/05/19 07:17:07;;;;;;;0.57;0.57;;;20.80;50.80;20.50;98724.00;;;;5016011;28;20555;-76
2022/05/19 07:22:22;;;;;;;0.87;0.87;;;21.00;47.90;20.70;98719.00;;;;5017166;28;20208;-76
2022/05/19 07:24:49;;;;;;;0.60;0.60;;;21.10;48.10;20.90;98697.00;;;;5017167;28;20205;-75
2022/05/19 07:27:17;;;;;;;0.47;0.47;;;21.30;47.90;21.00;98718.00;;;;5017018;28;20249;-76
2022/05/19 07:29:43;;;;;;;0.70;0.70;;;21.40;47.50;21.10;98708.00;;;;5016909;28;20432;-76
2022/05/19 07:32:10;;;;;;;0.70;0.70;;;21.50;47.20;21.40;98705.00;;;;5000046;28;20209;-76
2022/05/19 07:34:41;;;;;;;0.60;0.60;;;21.70;47.00;21.40;98705.00;;;;5017069;28;20224;-75
2022/05/19 07:37:07;;;;;;;0.73;0.73;;;21.80;46.30;21.50;98698.00;;;;5000158;28;20300;-76
2022/05/19 07:39:35;;;;;;;0.70;0.70;;;21.90;46.40;21.60;98703.00;;;;4999720;28;20622;-75
2022/05/19 07:42:02;;;;;;;0.60;0.60;;;22.00;46.70;21.80;98705.00;;;;5016919;28;20688;-75
2022/05/19 07:44:30;;;;;;;0.68;0.68;;;22.10;45.80;21.90;98695.00;;;;4999520;28;20217;-76
2022/05/19 07:46:57;;;;;;;0.70;0.70;;;22.20;45.60;22.00;98716.00;;;;5016731;28;20264;-76
2022/05/19 07:49:25;;;;;;;0.68;0.68;;;22.30;44.70;22.10;98717.00;;;;5016738;28;20206;-75
2022/05/19 07:51:51;;;;;;;0.50;0.50;;;22.40;44.40;22.20;98720.00;;;;4999254;28;20289;-75
2022/05/19 07:54:22;;;;;;;0.68;0.68;;;;;22.20;98720.00;;;;5016783;28;20208;-75
2022/05/19 07:56:51;;;;;;;0.73;0.73;;;;;22.40;98710.00;;;;5016947;28;20217;-76
2022/05/19 07:59:18;;;;;;;0.45;0.45;;;22.70;40.70;22.60;98717.00;;;;5016626;28;20210;-76
2022/05/19 08:01:45;;;;;;;0.50;0.50;;;22.80;41.80;22.70;98709.00;;;;4999276;28;20308;-76
2022/05/19 08:04:13;;;;;;;0.75;0.75;;;;;22.80;98706.00;;;;5016396;28;20299;-76
2022/05/19 08:06:41;;;;;;;0.60;0.60;;;23.10;39.90;22.90;98707.00;;;;5015502;28;20213;-76
2022/05/19 08:11:52;;;;;;;1.65;1.55;;;23.40;39.90;23.10;98697.00;;;;5015324;28;20252;-76
2022/05/19 08:17:08;;;;;;;0.80;0.80;;;23.50;39.30;23.40;98714.00;;;;4999015;28;20231;-76
2022/05/19 08:19:35;;;;;;;0.63;0.63;;;23.80;39.40;23.50;98709.00;;;;5016256;28;20280;-75
2022/05/19 08:22:08;;;;;;;0.52;0.52;;;23.90;46.10;23.70;98709.00;;;;4998971;28;20303;-76
2022/05/19 08:24:36;;;;;;;0.85;0.85;;;;;23.50;98710.00;;;;5016228;28;20279;-76
2022/05/19 08:27:06;;;;;;;0.50;0.50;;;23.90;38.10;23.90;98706.00;;;;5015698;28;20217;-76
2022/05/19 08:29:33;;;;;;;0.70;0.70;;;24.20;38.40;23.90;98703.00;;;;5016195;28;20212;-76
2022/05/19 08:32:00;;;;;;;5.68;1.00;;;;;24.20;98707.00;;;;5016203;28;20193;-76
2022/05/19 08:34:27;;;;;;;0.88;0.88;;;24.50;35.70;24.10;98710.00;;;;5016046;28;20205;-76
2022/05/19 08:36:56;;;;;;;0.52;0.52;;;;;24.20;98712.00;;;;5015927;28;20198;-76
2022/05/19 08:39:25;;;;;;;0.63;0.63;;;;;24.20;98702.00;;;;5015800;28;20213;-77
2022/05/19 08:42:00;;;;;;;0.70;0.70;;;24.60;36.20;24.40;98689.00;;;;4998807;28;20569;-75
2022/05/19 08:44:32;;;;;;;0.52;0.52;;;24.70;37.10;24.50;98702.00;;;;5015770;28;20221;-76
2022/05/19 08:47:03;;;;;;;0.70;0.70;;;24.80;36.90;24.60;98700.00;;;;5015941;28;20280;-76
2022/05/19 08:49:42;;;;;;;0.85;0.85;;;24.90;36.40;24.80;98703.00;;;;5015879;28;20278;-75
2022/05/19 08:52:11;;;;;;;0.57;0.57;;;;;24.90;98709.00;;;;5015788;28;20219;-75
2022/05/19 08:54:42;;;;;;;0.50;0.50;;;25.10;34.40;25.00;98698.00;;;;5015654;28;20281;-76
2022/05/19 08:57:18;;;;;;;0.50;0.50;;;;;25.10;98703.00;;;;5015560;28;20232;-76
2022/05/19 08:59:55;;;;;;;1.40;1.00;;;;;25.20;98700.00;;;;5015722;28;20271;-76
2022/05/19 09:02:34;;;;;;;0.40;0.40;;;25.50;32.90;25.30;98711.00;;;;4998371;28;20717;-75
2022/05/19 09:05:25;;;;;;;0.75;0.75;;;25.60;34.10;25.40;98710.00;;;;5015642;28;20197;-74
2022/05/19 09:08:07;;;;;;;0.52;0.52;;;25.70;32.70;25.30;98708.00;;;;5015593;28;20225;-77
2022/05/19 09:10:55;;;;;;;1.25;1.15;;;25.60;33.10;25.30;98700.00;;;;5015613;28;20320;-75
2022/05/19 09:13:38;;;;;;;0.47;0.47;;;25.70;33.30;25.50;98705.00;;;;5015412;28;20221;-76
2022/05/19 09:16:14;;;;;;;0.50;0.50;;;25.70;35.40;25.50;98699.00;;;;5015403;28;20637;-75
2022/05/19 09:18:47;;;;;;;0.90;0.82;;;25.90;35.50;25.60;98696.00;;;;5015343;28;20255;-75
2022/05/19 09:21:14;;;;;;;1.13;1.08;;;26.00;34.60;25.80;98691.00;;;;5015490;28;20288;-74
2022/05/19 09:23:43;;;;;;;0.80;0.80;;;26.10;34.40;26.10;98702.00;;;;5015296;28;20235;-73
2022/05/19 09:26:45;;;;;;;0.93;0.93;;;26.30;33.80;26.00;98697.00;;;;5015239;28;20308;-74
2022/05/19 09:29:16;;;;;;;0.55;0.55;;;26.40;34.00;26.30;98695.00;;;;5015408;28;20193;-75
2022/05/19 09:31:51;;;;;;;0.70;0.70;;;26.60;33.90;26.50;98697.00;;;;5015716;28;20324;-76
2022/05/19 09:34:22;;;;;;;0.73;0.73;;;26.70;33.30;26.70;98681.00;;;;5015980;28;20209;-76
2022/05/19 09:37:08;;;;;;;0.70;0.70;;;26.90;33.30;26.90;98686.00;;;;5015797;28;20259;-75
2022/05/19 09:39:46;;;;;;;0.60;0.60;;;27.20;33.20;26.80;98703.00;;;;5014736;28;20205;-75
2022/05/19 09:42:20;;;;;;;10.70;0.85;;;27.20;32.90;27.00;98694.00;;;;5020983;28;20263;-76
2022/05/19 09:44:55;;;;;;;0.50;0.50;;;27.30;33.20;27.30;98705.00;;;;5025498;28;20467;-75
2022/05/19 09:47:31;;;;;;;1.20;0.90;;;27.50;32.60;27.40;98708.00;;;;5025452;28;20204;-75
2022/05/19 09:50:07;;;;;;;0.70;0.70;;;27.70;33.20;27.60;98699.00;;;;5020936;28;20227;-78
2022/05/19 09:52:41;;;;;;;0.52;0.52;;;27.90;33.40;27.60;98703.00;;;;5021245;28;20193;-77
2022/05/19 09:55:11;;;;;;;0.60;0.60;;;28.00;33.40;27.70;98700.00;;;;5020997;28;20216;-77
2022/05/19 09:57:45;;;;;;;1.17;1.17;;;28.00;32.40;27.80;98702.00;;;;5004074;28;20638;-77
2022/05/19 10:00:25;;;;;;;8.88;1.27;;;28.10;32.70;27.80;98712.00;;;;5018507;28;20224;-76
2022/05/19 10:02:58;;;;;;;0.60;0.60;;;28.10;31.80;27.70;98704.00;;;;5014963;28;20528;-76
2022/05/19 10:05:38;;;;;;;0.60;0.60;;;28.10;31.90;27.70;98711.00;;;;5014723;28;20197;-76
2022/05/19 10:08:13;;;;;;;2.05;0.60;;;28.00;32.20;27.60;98707.00;;;;5014721;28;20205;-75
2022/05/19 10:10:56;;;;;;;0.93;0.93;;;28.00;32.80;27.80;98703.00;;;;5014682;28;20617;-74
2022/05/19 10:13:31;;;;;;;1.13;0.95;;;28.10;33.30;28.00;98709.00;;;;5014810;28;20207;-74
2022/05/19 10:16:07;;;;;;;1.55;0.88;;;28.30;32.10;28.10;98701.00;;;;5014530;28;20228;-78
2022/05/19 10:19:16;;;;;;;0.70;0.70;;;28.40;33.10;28.20;98701.00;;;;5014736;28;20224;-77
2022/05/19 10:22:28;;;;;;;0.80;0.80;;;28.50;33.20;28.30;98701.00;;;;4979533;28;20760;-76
2022/05/19 10:25:18;;;;;;;1.13;1.13;;;28.70;33.10;28.50;98697.00;;;;4975875;28;20213;-75
2022/05/19 10:31:07;;;;;;;1.00;1.00;;;28.90;34.10;28.80;98695.00;;;;5014217;28;20543;-76
2022/05/19 10:34:01;;;;;;;0.70;0.70;;;29.00;32.50;28.80;98694.00;;;;5014259;28;20262;-76
2022/05/19 10:36:41;;;;;;;0.90;0.90;;;29.10;32.80;29.00;98695.00;;;;5014072;28;20252;-76
2022/05/19 10:39:25;;;;;;;0.80;0.80;;;;;29.10;98686.00;;;;5014205;28;20197;-76
2022/05/19 10:42:10;;;;;;;0.80;0.80;;;29.40;31.90;29.10;98678.00;;;;5014106;28;20829;-78
2022/05/19 10:45:10;;;;;;;0.93;0.93;;;29.40;32.00;29.10;98678.00;;;;4996941;28;20197;-77
2022/05/19 10:47:58;;;;;;;1.30;0.85;;;29.40;31.40;29.10;98679.00;;;;5014029;28;20216;-77
2022/05/19 10:50:30;;;;;;;1.05;1.05;;;29.40;31.00;29.20;98674.00;;;;5013824;28;20224;-77
2022/05/19 10:53:44;;;;;;;0.50;0.50;;;29.50;31.00;29.30;98670.00;;;;5013970;28;20236;-77
2022/05/19 10:56:39;;;;;;;0.80;0.80;;;29.50;30.60;29.40;98671.00;;;;5013979;28;20198;-77
2022/05/19 10:59:32;;;;;;;1.33;1.25;;;29.70;32.80;29.50;98669.00;;;;5013915;28;20263;-77
2022/05/19 11:02:24;;;;;;;1.63;1.52;;;29.90;32.60;29.80;98671.00;;;;5013841;28;20644;-77
2022/05/19 11:05:16;;;;;;;2.15;1.13;;;30.10;33.00;30.20;98671.00;;;;5013841;28;20252;-77
2022/05/19 11:08:01;;;;;;;0.65;0.65;;;30.30;32.20;30.10;98662.00;;;;5013722;28;20216;-77
2022/05/19 11:10:42;;;;;;;0.85;0.85;;;30.40;31.10;30.30;98665.00;;;;5013589;28;20260;-76
2022/05/19 11:13:28;;;;;;;1.13;1.02;;;30.50;32.20;30.20;98666.00;;;;4996584;28;20300;-76
2022/05/19 11:16:10;;;;;;;0.60;0.60;;;30.50;30.30;30.00;98664.00;;;;5013624;28;20225;-76
2022/05/19 11:18:49;;;;;;;0.80;0.80;;;30.40;31.60;30.20;98669.00;;;;5013734;28;20339;-77
2022/05/19 11:21:23;;;;;;;0.60;0.60;;;30.50;31.50;30.40;98669.00;;;;5013639;28;20312;-77
2022/05/19 11:23:59;;;;;;;1.85;1.75;;;30.60;30.50;30.70;98668.00;;;;5013785;28;20290;-77
2022/05/19 11:26:33;;;;;;;0.73;0.73;;;30.90;30.60;30.80;98660.00;;;;5013756;28;20498;-77
2022/05/19 11:29:16;;;;;;;0.90;0.90;;;31.10;29.90;30.90;98656.00;;;;5013639;28;20208;-77
2022/05/19 11:31:52;;;;;;;1.10;1.10;;;31.20;31.50;31.10;98651.00;;;;4996076;28;20232;-77